createdAt,value
2022-10-11T00:00:07.509Z,100.00
2022-10-11T00:02:34.040Z,100.00
2022-10-11T00:05:00.614Z,100.00
2022-10-11T00:07:27.175Z,100.00
2022-10-11T00:09:54.005Z,100.00
2022-10-11T00:12:20.815Z,100.00
2022-10-11T00:14:47.369Z,100.00
2022-10-11T00:17:14.525Z,100.00
2022-10-11T00:19:41.094Z,100.00
2022-10-11T00:22:07.678Z,100.00
2022-10-11T00:24:34.249Z,100.00
2022-10-11T00:27:00.858Z,100.00
2022-10-11T00:29:27.393Z,100.00
2022-10-11T00:31:53.901Z,100.00
2022-10-11T00:34:20.503Z,100.00
2022-10-11T00:36:47.086Z,100.00
2022-10-11T00:39:14.522Z,100.00
2022-10-11T00:41:41.345Z,100.00
2022-10-11T00:44:12.835Z,100.00
2022-10-11T00:46:42.564Z,100.00
2022-10-11T00:49:25.318Z,100.00
2022-10-11T00:52:22.774Z,100.00
2022-10-11T00:54:50.072Z,100.00
2022-10-11T00:57:23.908Z,100.00
2022-10-11T00:59:54.319Z,100.00
2022-10-11T01:02:23.119Z,100.00
2022-10-11T01:05:05.601Z,100.00
2022-10-11T01:07:38.724Z,100.00
2022-10-11T01:10:05.723Z,100.00
2022-10-11T01:12:32.641Z,100.00
2022-10-11T01:15:05.508Z,100.00
2022-10-11T01:18:12.700Z,100.00
2022-10-11T01:21:00.514Z,100.00
2022-10-11T01:23:57.973Z,100.00
2022-10-11T01:26:33.311Z,100.00
2022-10-11T01:29:18.097Z,100.00
2022-10-11T01:32:02.631Z,100.00
2022-10-11T01:35:01.684Z,100.00
2022-10-11T01:37:41.112Z,100.00
2022-10-11T01:40:11.270Z,100.00
2022-10-11T01:42:39.911Z,100.00
2022-10-11T01:45:13.997Z,100.00
2022-10-11T01:47:42.408Z,100.00
2022-10-11T01:50:31.587Z,100.00
2022-10-11T01:53:04.286Z,100.00
2022-10-11T01:55:50.030Z,100.00
2022-10-11T01:58:45.838Z,100.00
2022-10-11T02:01:18.054Z,100.00
2022-10-11T02:04:25.592Z,100.00
2022-10-11T02:07:08.172Z,100.00
2022-10-11T02:10:03.416Z,100.00
2022-10-11T02:12:40.768Z,100.00
2022-10-11T02:15:11.580Z,100.00
2022-10-11T02:17:43.430Z,100.00
2022-10-11T02:20:16.247Z,100.00
2022-10-11T02:22:45.875Z,100.00
2022-10-11T02:25:20.292Z,100.00
2022-10-11T02:27:48.777Z,100.00
2022-10-11T02:30:16.064Z,100.00
2022-10-11T02:32:46.453Z,100.00
2022-10-11T02:35:13.933Z,100.00
2022-10-11T02:37:49.290Z,100.00
2022-10-11T02:40:22.844Z,100.00
2022-10-11T02:43:01.267Z,100.00
2022-10-11T02:45:36.786Z,100.00
2022-10-11T02:48:05.078Z,100.00
2022-10-11T02:50:31.657Z,100.00
2022-10-11T02:52:58.213Z,100.00
2022-10-11T02:55:24.738Z,100.00
2022-10-11T02:57:51.302Z,100.00
2022-10-11T03:00:17.858Z,100.00
2022-10-11T03:02:44.408Z,100.00
2022-10-11T03:05:10.934Z,100.00
2022-10-11T03:07:37.518Z,100.00
2022-10-11T03:10:05.108Z,100.00
2022-10-11T03:12:32.130Z,100.00
2022-10-11T03:14:58.769Z,99.35
2022-10-11T03:17:36.213Z,100.00
2022-10-11T03:20:04.760Z,100.00
2022-10-11T03:22:31.279Z,99.78
2022-10-11T03:25:03.397Z,99.33
2022-10-11T03:27:31.027Z,98.77
2022-10-11T03:29:57.854Z,99.16
2022-10-11T03:32:24.939Z,98.87
2022-10-11T03:34:51.501Z,99.20
2022-10-11T03:37:18.276Z,98.88
2022-10-11T03:39:45.775Z,97.24
2022-10-11T03:42:13.685Z,97.05
2022-10-11T03:44:41.682Z,97.68
2022-10-11T03:47:08.473Z,97.85
2022-10-11T03:49:37.710Z,98.14
2022-10-11T03:52:07.862Z,98.06
2022-10-11T03:54:34.387Z,98.09
2022-10-11T03:57:00.954Z,98.39
2022-10-11T03:59:27.475Z,98.60
2022-10-11T04:01:54.209Z,98.94
2022-10-11T04:04:20.851Z,98.97
2022-10-11T04:06:47.368Z,98.85
2022-10-11T04:09:13.905Z,98.46
2022-10-11T04:11:40.487Z,98.83
2022-10-11T04:14:07.021Z,99.37
2022-10-11T04:16:34.110Z,98.87
2022-10-11T04:19:00.960Z,98.86
2022-10-11T04:21:27.493Z,98.29
2022-10-11T04:23:54.807Z,97.80
2022-10-11T04:26:21.441Z,97.66
2022-10-11T04:28:48.094Z,97.58
2022-10-11T04:31:14.849Z,98.63
2022-10-11T04:33:41.447Z,98.82
2022-10-11T04:36:08.638Z,98.51
2022-10-11T04:38:35.436Z,98.29
2022-10-11T04:41:09.579Z,98.56
2022-10-11T04:43:36.684Z,98.78
2022-10-11T04:46:04.578Z,99.51
2022-10-11T04:48:31.511Z,99.09
2022-10-11T04:50:58.109Z,99.14
2022-10-11T04:53:24.938Z,98.17
2022-10-11T04:56:01.076Z,98.40
2022-10-11T04:58:28.934Z,98.96
2022-10-11T05:00:56.020Z,99.96
2022-10-11T05:03:22.667Z,99.42
2022-10-11T05:05:49.490Z,99.68
2022-10-11T05:08:16.397Z,99.56
2022-10-11T05:10:43.213Z,99.90
2022-10-11T05:13:09.751Z,99.36
2022-10-11T05:15:36.272Z,100.00
2022-10-11T05:18:02.925Z,100.00
2022-10-11T05:20:29.499Z,100.00
2022-10-11T05:22:56.146Z,100.00
2022-10-11T05:25:22.709Z,99.59
2022-10-11T05:27:49.225Z,99.32
2022-10-11T05:30:16.014Z,99.29
2022-10-11T05:32:42.540Z,97.21
2022-10-11T05:35:09.309Z,97.96
2022-10-11T05:37:35.843Z,97.55
2022-10-11T05:40:02.444Z,92.14
2022-10-11T05:42:29.018Z,95.92
2022-10-11T05:44:55.557Z,95.65
2022-10-11T05:47:22.121Z,97.58
2022-10-11T05:49:48.682Z,89.79
2022-10-11T05:52:19.770Z,92.01
2022-10-11T05:54:46.686Z,93.57
2022-10-11T05:57:13.461Z,95.13
2022-10-11T05:59:40.010Z,94.16
2022-10-11T06:02:07.448Z,95.91
2022-10-11T06:04:37.450Z,94.52
2022-10-11T06:07:04.338Z,94.40
2022-10-11T06:09:31.232Z,92.71
2022-10-11T06:11:57.943Z,93.34
2022-10-11T06:14:24.485Z,91.63
2022-10-11T06:16:51.243Z,88.53
2022-10-11T06:19:17.837Z,85.67
2022-10-11T06:21:45.804Z,89.32
2022-10-11T06:24:13.093Z,89.54
2022-10-11T06:26:39.674Z,92.99
2022-10-11T06:29:06.304Z,89.81
2022-10-11T06:31:33.151Z,88.68
2022-10-11T06:33:59.910Z,89.15
2022-10-11T06:36:26.784Z,85.48
2022-10-11T06:38:55.031Z,87.26
2022-10-11T06:41:26.996Z,88.74
2022-10-11T06:43:54.020Z,85.34
2022-10-11T06:46:23.129Z,87.45
2022-10-11T06:48:50.317Z,83.67
2022-10-11T06:51:20.133Z,81.06
2022-10-11T06:53:55.855Z,82.37
2022-10-11T06:56:22.855Z,82.01
2022-10-11T06:58:51.013Z,82.04
2022-10-11T07:01:20.125Z,85.09
2022-10-11T07:03:47.390Z,83.29
2022-10-11T07:06:16.959Z,81.92
2022-10-11T07:08:43.526Z,82.92
2022-10-11T07:11:12.322Z,86.75
2022-10-11T07:13:39.918Z,83.05
2022-10-11T07:16:09.904Z,83.53
2022-10-11T07:18:36.775Z,84.96
2022-10-11T07:21:05.734Z,82.92
2022-10-11T07:23:32.547Z,82.10
2022-10-11T07:25:59.367Z,82.69
2022-10-11T07:28:26.894Z,83.32
2022-10-11T07:30:53.542Z,85.13
2022-10-11T07:33:20.107Z,87.25
2022-10-11T07:35:48.566Z,85.15
2022-10-11T07:38:15.790Z,82.95
2022-10-11T07:40:44.376Z,85.85
2022-10-11T07:43:12.195Z,85.80
2022-10-11T07:45:45.125Z,88.63
2022-10-11T07:48:11.772Z,88.03
2022-10-11T07:50:38.333Z,88.03
2022-10-11T07:53:05.083Z,86.70
2022-10-11T07:55:40.044Z,86.64
2022-10-11T07:58:11.775Z,89.85
2022-10-11T08:00:39.373Z,89.08
2022-10-11T08:03:06.508Z,89.10
2022-10-11T08:05:34.734Z,87.20
2022-10-11T08:08:01.254Z,87.93
2022-10-11T08:10:28.048Z,87.97
2022-10-11T08:12:54.773Z,89.53
2022-10-11T08:15:21.724Z,91.14
2022-10-11T08:17:48.589Z,89.41
2022-10-11T08:20:15.224Z,88.84
2022-10-11T08:22:42.018Z,89.23
2022-10-11T08:25:08.699Z,90.32
2022-10-11T08:27:35.255Z,83.54
2022-10-11T08:30:01.828Z,87.37
2022-10-11T08:32:29.758Z,87.46
2022-10-11T08:34:56.442Z,83.75
2022-10-11T08:37:22.968Z,87.22
2022-10-11T08:39:49.775Z,85.26
2022-10-11T08:42:30.674Z,84.12
2022-10-11T08:45:11.142Z,80.12
2022-10-11T08:47:42.779Z,79.10
2022-10-11T08:50:15.641Z,80.17
2022-10-11T08:52:56.768Z,78.48
2022-10-11T08:55:30.154Z,76.19
2022-10-11T08:57:57.408Z,76.86
2022-10-11T09:00:26.294Z,76.92
2022-10-11T09:03:11.698Z,80.92
2022-10-11T09:06:04.238Z,74.02
2022-10-11T09:08:42.957Z,71.08
2022-10-11T09:11:50.324Z,69.99
2022-10-11T09:14:39.953Z,74.78
2022-10-11T09:17:54.420Z,68.59
2022-10-11T09:20:24.186Z,69.88
2022-10-11T09:23:13.131Z,69.00
2022-10-11T09:26:12.060Z,67.12
2022-10-11T09:28:41.622Z,62.33
2022-10-11T09:31:10.921Z,65.55
2022-10-11T09:33:46.900Z,62.56
2022-10-11T09:36:37.353Z,62.39
2022-10-11T09:39:25.478Z,61.19
2022-10-11T09:42:11.570Z,63.80
2022-10-11T09:44:57.474Z,59.44
2022-10-11T09:47:27.227Z,59.41
2022-10-11T09:49:58.157Z,58.48
2022-10-11T09:52:26.070Z,65.82
2022-10-11T09:55:00.779Z,61.91
2022-10-11T09:57:32.125Z,61.87
2022-10-11T10:00:22.148Z,62.33
2022-10-11T10:03:10.358Z,56.83
2022-10-11T10:05:38.535Z,59.67
2022-10-11T10:08:22.630Z,54.49
2022-10-11T10:10:59.957Z,57.46
2022-10-11T10:13:41.747Z,56.51
2022-10-11T10:16:20.214Z,61.64
2022-10-11T10:19:24.088Z,59.20
2022-10-11T10:21:53.564Z,62.34
2022-10-11T10:24:42.517Z,62.35
2022-10-11T10:27:17.774Z,63.05
2022-10-11T10:30:10.149Z,65.86
2022-10-11T10:32:52.218Z,63.92
2022-10-11T10:35:37.015Z,56.43
2022-10-11T10:38:32.667Z,57.26
2022-10-11T10:41:04.202Z,56.53
2022-10-11T10:43:36.743Z,58.42
2022-10-11T10:46:18.011Z,56.79
2022-10-11T10:49:19.124Z,56.49
2022-10-11T10:52:24.699Z,58.77
2022-10-11T10:55:03.319Z,59.26
2022-10-11T10:57:54.292Z,57.24
2022-10-11T11:00:22.839Z,56.86
2022-10-11T11:03:20.342Z,56.92
2022-10-11T11:05:55.958Z,58.58
2022-10-11T11:08:22.438Z,59.83
2022-10-11T11:11:01.902Z,59.54
2022-10-11T11:13:43.685Z,60.72
2022-10-11T11:16:19.323Z,62.33
2022-10-11T11:19:24.151Z,60.59
2022-10-11T11:22:12.142Z,61.96
2022-10-11T11:25:12.411Z,61.40
2022-10-11T11:28:22.237Z,61.43
2022-10-11T11:31:21.007Z,61.95
2022-10-11T11:34:09.395Z,63.46
2022-10-11T11:36:46.156Z,62.20
2022-10-11T11:39:35.306Z,62.20
2022-10-11T11:42:10.279Z,62.26
2022-10-11T11:44:48.139Z,60.64
2022-10-11T11:47:19.062Z,59.08
2022-10-11T11:49:50.042Z,58.98
2022-10-11T11:52:34.627Z,57.57
2022-10-11T11:55:25.975Z,59.68
2022-10-11T11:58:07.320Z,59.31
2022-10-11T12:00:48.273Z,59.97
2022-10-11T12:03:23.934Z,58.91
2022-10-11T12:06:12.258Z,58.83
2022-10-11T12:08:45.878Z,63.72
2022-10-11T12:11:28.578Z,59.20
2022-10-11T12:13:59.683Z,58.16
2022-10-11T12:16:27.191Z,59.68
2022-10-11T12:18:56.713Z,57.84
2022-10-11T12:21:37.771Z,57.97
2022-10-11T12:24:21.752Z,57.63
2022-10-11T12:26:55.762Z,57.26
2022-10-11T12:29:45.018Z,55.07
2022-10-11T12:32:33.981Z,57.07
2022-10-11T12:35:31.779Z,61.91
2022-10-11T12:38:17.836Z,56.15
2022-10-11T12:40:47.210Z,57.48
2022-10-11T12:43:19.940Z,55.96
2022-10-11T12:45:48.108Z,58.20
2022-10-11T12:48:35.920Z,57.31
2022-10-11T12:51:15.666Z,50.99
2022-10-11T12:54:26.824Z,52.76
2022-10-11T12:57:14.164Z,49.82
2022-10-11T12:59:45.057Z,52.37
2022-10-11T13:02:31.912Z,50.08
2022-10-11T13:05:18.666Z,52.17
2022-10-11T13:07:46.521Z,48.58
2022-10-11T13:10:21.495Z,49.17
2022-10-11T13:12:49.045Z,49.42
2022-10-11T13:15:19.395Z,51.38
2022-10-11T13:17:48.673Z,51.42
2022-10-11T13:20:26.055Z,55.24
2022-10-11T13:22:55.559Z,50.56
2022-10-11T13:25:29.911Z,54.82
2022-10-11T13:27:59.510Z,52.61
2022-10-11T13:30:31.527Z,56.54
2022-10-11T13:32:59.510Z,58.09
2022-10-11T13:35:34.479Z,56.91
2022-10-11T13:38:02.439Z,58.58
2022-10-11T13:40:30.028Z,53.60
2022-10-11T13:42:57.430Z,55.61
2022-10-11T13:45:26.644Z,61.00
2022-10-11T13:47:55.039Z,56.65
2022-10-11T13:50:33.649Z,59.57
2022-10-11T13:53:24.287Z,52.67
2022-10-11T13:55:54.424Z,56.42
2022-10-11T13:58:28.614Z,58.14
2022-10-11T14:00:58.491Z,55.03
2022-10-11T14:03:37.475Z,55.78
2022-10-11T14:06:04.875Z,54.24
2022-10-11T14:08:38.088Z,55.38
2022-10-11T14:11:07.031Z,55.77
2022-10-11T14:13:38.670Z,56.72
2022-10-11T14:16:05.595Z,58.30
2022-10-11T14:18:47.067Z,55.48
2022-10-11T14:21:19.775Z,55.38
2022-10-11T14:23:55.933Z,55.98
2022-10-11T14:26:24.229Z,58.53
2022-10-11T14:28:56.614Z,55.60
2022-10-11T14:31:23.835Z,57.34
2022-10-11T14:33:50.492Z,57.94
2022-10-11T14:36:17.068Z,59.50
2022-10-11T14:38:43.618Z,57.18
2022-10-11T14:41:10.246Z,55.58
2022-10-11T14:43:36.847Z,59.73
2022-10-11T14:46:03.619Z,56.76
2022-10-11T14:48:53.583Z,55.20
2022-10-11T14:51:22.163Z,58.17
2022-10-11T14:53:49.467Z,57.41
2022-10-11T14:56:21.345Z,56.44
2022-10-11T14:58:48.521Z,58.31
2022-10-11T15:01:17.007Z,58.92
2022-10-11T15:03:43.815Z,57.51
2022-10-11T15:06:22.977Z,58.19
2022-10-11T15:08:49.529Z,57.90
2022-10-11T15:11:20.935Z,58.64
2022-10-11T15:13:48.200Z,59.83
2022-10-11T15:16:17.467Z,59.31
2022-10-11T15:18:44.172Z,58.79
2022-10-11T15:21:14.677Z,58.63
2022-10-11T15:23:41.213Z,58.09
2022-10-11T15:26:13.349Z,58.72
2022-10-11T15:28:40.015Z,59.65
2022-10-11T15:31:06.610Z,59.60
2022-10-11T15:33:33.182Z,60.62
2022-10-11T15:35:59.904Z,60.03
2022-10-11T15:38:26.892Z,61.54
2022-10-11T15:40:54.079Z,61.88
2022-10-11T15:43:24.767Z,62.13
2022-10-11T15:45:52.393Z,62.99
2022-10-11T15:48:21.855Z,62.54
2022-10-11T15:50:50.052Z,63.61
2022-10-11T15:53:19.165Z,64.16
2022-10-11T15:55:50.899Z,63.28
2022-10-11T15:58:49.966Z,63.81
2022-10-11T16:01:19.761Z,65.22
2022-10-11T16:03:47.931Z,65.03
2022-10-11T16:06:15.171Z,63.31
2022-10-11T16:08:41.785Z,64.22
2022-10-11T16:11:09.327Z,65.64
2022-10-11T16:13:36.142Z,65.36
2022-10-11T16:16:05.749Z,66.36
2022-10-11T16:18:35.717Z,66.61
2022-10-11T16:21:06.983Z,66.55
2022-10-11T16:23:33.927Z,66.80
2022-10-11T16:26:04.208Z,67.60
2022-10-11T16:28:31.862Z,67.45
2022-10-11T16:30:58.504Z,68.28
2022-10-11T16:33:25.372Z,69.25
2022-10-11T16:35:51.997Z,69.64
2022-10-11T16:38:18.594Z,69.96
2022-10-11T16:40:45.137Z,70.58
2022-10-11T16:43:11.768Z,70.39
2022-10-11T16:45:38.417Z,71.37
2022-10-11T16:48:05.574Z,71.26
2022-10-11T16:50:36.810Z,72.62
2022-10-11T16:53:05.843Z,74.65
2022-10-11T16:55:32.472Z,74.95
2022-10-11T16:57:59.039Z,74.88
2022-10-11T17:00:25.683Z,75.22
2022-10-11T17:02:52.339Z,74.51
2022-10-11T17:05:19.320Z,75.32
2022-10-11T17:07:45.907Z,75.84
2022-10-11T17:10:12.498Z,76.66
2022-10-11T17:12:39.054Z,76.08
2022-10-11T17:15:06.790Z,76.21
2022-10-11T17:17:33.453Z,76.37
2022-10-11T17:20:02.254Z,76.31
2022-10-11T17:22:29.033Z,76.76
2022-10-11T17:24:55.598Z,77.42
2022-10-11T17:27:22.304Z,77.62
2022-10-11T17:29:49.272Z,78.08
2022-10-11T17:32:16.005Z,78.55
2022-10-11T17:34:42.518Z,79.11
2022-10-11T17:37:10.059Z,79.75
2022-10-11T17:39:36.842Z,80.06
2022-10-11T17:42:07.317Z,79.77
2022-10-11T17:44:35.359Z,79.98
2022-10-11T17:47:02.820Z,80.04
2022-10-11T17:49:29.569Z,80.03
2022-10-11T17:51:56.670Z,79.73
2022-10-11T17:54:23.251Z,80.01
2022-10-11T17:56:50.308Z,80.59
2022-10-11T17:59:20.983Z,80.51
2022-10-11T18:01:50.246Z,81.31
2022-10-11T18:04:19.196Z,81.07
2022-10-11T18:06:46.880Z,81.48
2022-10-11T18:09:16.627Z,81.76
2022-10-11T18:11:43.303Z,81.94
2022-10-11T18:14:10.157Z,81.86
2022-10-11T18:16:37.778Z,82.23
2022-10-11T18:19:06.937Z,82.68
2022-10-11T18:21:35.006Z,83.11
2022-10-11T18:24:04.164Z,83.21
2022-10-11T18:26:31.251Z,84.03
2022-10-11T18:28:58.730Z,84.93
2022-10-11T18:31:28.582Z,84.71
2022-10-11T18:33:55.528Z,85.06
2022-10-11T18:36:27.199Z,85.13
2022-10-11T18:38:56.690Z,84.89
2022-10-11T18:41:25.108Z,85.00
2022-10-11T18:43:54.312Z,85.53
2022-10-11T18:46:22.220Z,85.62
2022-10-11T18:48:51.537Z,85.72
2022-10-11T18:51:21.522Z,85.18
2022-10-11T18:53:48.930Z,85.13
2022-10-11T18:56:17.796Z,85.07
2022-10-11T18:58:45.221Z,84.84
2022-10-11T19:01:24.049Z,86.19
2022-10-11T19:03:53.938Z,86.03
2022-10-11T19:06:24.888Z,85.70
2022-10-11T19:08:54.861Z,85.36
2022-10-11T19:11:22.819Z,85.75
2022-10-11T19:14:07.087Z,86.41
2022-10-11T19:16:35.822Z,87.37
2022-10-11T19:19:02.344Z,88.10
2022-10-11T19:21:28.926Z,89.46
2022-10-11T19:23:56.283Z,89.70
2022-10-11T19:26:30.027Z,90.27
2022-10-11T19:28:59.243Z,90.37
2022-10-11T19:31:25.969Z,90.17
2022-10-11T19:33:52.742Z,90.62
2022-10-11T19:36:19.835Z,90.10
2022-10-11T19:38:49.060Z,90.74
2022-10-11T19:41:18.658Z,90.58
2022-10-11T19:43:45.565Z,90.99
2022-10-11T19:46:27.372Z,91.45
2022-10-11T19:49:03.888Z,92.63
2022-10-11T19:51:34.741Z,92.32
2022-10-11T19:54:04.371Z,92.62
2022-10-11T19:56:32.784Z,92.32
2022-10-11T19:59:00.029Z,92.08
2022-10-11T20:01:29.697Z,92.27
2022-10-11T20:03:59.484Z,92.42
2022-10-11T20:06:27.868Z,92.42
2022-10-11T20:09:16.619Z,92.42
2022-10-11T20:11:42.430Z,93.18
2022-10-11T20:14:09.420Z,93.78
2022-10-11T20:16:36.004Z,94.02
2022-10-11T20:19:02.740Z,93.66
2022-10-11T20:21:30.474Z,92.76
2022-10-11T20:24:02.292Z,93.55
2022-10-11T20:26:30.022Z,93.89
2022-10-11T20:28:57.427Z,93.79
2022-10-11T20:31:29.829Z,94.43
2022-10-11T20:33:58.535Z,94.25
2022-10-11T20:36:27.974Z,94.99
2022-10-11T20:38:54.535Z,95.06
2022-10-11T20:41:31.358Z,95.22
2022-10-11T20:43:59.514Z,95.27
2022-10-11T20:46:28.307Z,94.88
2022-10-11T20:49:01.860Z,95.23
2022-10-11T20:51:31.023Z,94.89
2022-10-11T20:53:59.309Z,94.77
2022-10-11T20:56:26.682Z,95.47
2022-10-11T20:58:55.430Z,95.00
2022-10-11T21:01:26.168Z,96.08
2022-10-11T21:03:52.909Z,95.52
2022-10-11T21:06:19.454Z,95.79
2022-10-11T21:08:46.035Z,95.18
2022-10-11T21:11:12.566Z,95.86
2022-10-11T21:13:39.100Z,96.88
2022-10-11T21:16:10.551Z,98.66
2022-10-11T21:18:37.430Z,98.61
2022-10-11T21:21:07.859Z,98.23
2022-10-11T21:23:34.629Z,98.27
2022-10-11T21:26:06.705Z,98.59
2022-10-11T21:28:33.934Z,98.47
2022-10-11T21:31:09.287Z,98.78
2022-10-11T21:33:36.583Z,99.41
2022-10-11T21:36:05.469Z,98.92
2022-10-11T21:38:32.399Z,99.09
2022-10-11T21:40:58.944Z,98.61
2022-10-11T21:43:25.479Z,99.92
2022-10-11T21:45:52.110Z,98.77
2022-10-11T21:48:18.631Z,98.72
2022-10-11T21:50:52.755Z,98.07
2022-10-11T21:53:19.253Z,98.01
2022-10-11T21:55:45.742Z,97.85
2022-10-11T21:58:12.385Z,98.37
2022-10-11T22:00:39.195Z,98.19
2022-10-11T22:03:05.706Z,98.17
2022-10-11T22:05:32.302Z,97.37
2022-10-11T22:07:58.858Z,97.89
2022-10-11T22:10:25.423Z,98.58
2022-10-11T22:12:51.941Z,97.89
2022-10-11T22:15:18.443Z,98.13
2022-10-11T22:17:44.952Z,99.12
2022-10-11T22:20:11.540Z,98.68
2022-10-11T22:22:38.328Z,98.74
2022-10-11T22:25:05.543Z,98.84
2022-10-11T22:27:32.176Z,98.72
2022-10-11T22:29:58.716Z,98.03
2022-10-11T22:32:25.258Z,98.41
2022-10-11T22:34:52.017Z,99.48
2022-10-11T22:37:18.558Z,99.63
2022-10-11T22:39:45.061Z,98.88
2022-10-11T22:42:11.646Z,98.99
2022-10-11T22:44:38.143Z,99.19
2022-10-11T22:47:04.713Z,99.66
2022-10-11T22:49:31.402Z,98.74
2022-10-11T22:51:57.865Z,99.88
2022-10-11T22:54:24.439Z,98.62
2022-10-11T22:56:51.046Z,98.68
2022-10-11T22:59:17.594Z,100.00
2022-10-11T23:01:44.091Z,100.00
2022-10-11T23:04:10.667Z,99.95
2022-10-11T23:06:37.273Z,100.00
2022-10-11T23:09:03.898Z,100.00
2022-10-11T23:11:30.710Z,99.99
2022-10-11T23:13:57.266Z,100.00
2022-10-11T23:16:23.754Z,100.00
2022-10-11T23:18:53.259Z,99.52
2022-10-11T23:21:20.100Z,99.63
2022-10-11T23:23:46.679Z,100.00
2022-10-11T23:26:15.629Z,100.00
2022-10-11T23:28:43.103Z,100.00
2022-10-11T23:31:12.822Z,100.00
2022-10-11T23:33:39.612Z,99.79
2022-10-11T23:36:06.821Z,99.85
2022-10-11T23:38:33.333Z,99.93
2022-10-11T23:40:59.937Z,99.23
2022-10-11T23:43:26.432Z,100.00
2022-10-11T23:45:54.891Z,100.00
2022-10-11T23:48:21.622Z,99.90
2022-10-11T23:50:48.228Z,100.00
2022-10-11T23:53:14.760Z,100.00
2022-10-11T23:55:42.398Z,100.00
2022-10-11T23:58:08.956Z,100.00
